Time;durP1;ratioP1;P1;durP2;ratioP2;P2;SDS_P1;SDS_P2;PMS_P1;PMS_P2;Temp;Humidity;BMP_temperature;BMP_pressure;BME280_temperature;BME280_humidity;BME280_pressure;Samples;Min_cycle;Max_cycle;Signal;HPM_P1;HPM_P2
2022/10/01 00:00:59;;;;;;;0.50;0.50;;;12.30;99.90;;;;;;4996093;27;20047;-83
2022/10/01 00:03:27;;;;;;;0.50;0.50;;;12.30;99.90;;;;;;5012058;28;20126;-85
2022/10/01 00:06:11;;;;;;;0.50;0.50;;;12.20;99.90;;;;;;4998323;27;20055;-89
2022/10/01 00:08:41;;;;;;;0.50;0.50;;;12.20;99.90;;;;;;5012755;28;20794;-87
2022/10/01 00:11:13;;;;;;;0.50;0.50;;;12.20;99.90;;;;;;4981224;27;20363;-89
2022/10/01 00:13:43;;;;;;;0.50;0.50;;;12.10;99.90;;;;;;4989149;27;20043;-88
2022/10/01 00:16:12;;;;;;;0.50;0.50;;;12.00;99.90;;;;;;4994673;27;20039;-88
2022/10/01 00:18:40;;;;;;;0.50;0.50;;;12.00;99.90;;;;;;5014570;27;20090;-91
2022/10/01 00:21:08;;;;;;;0.50;0.50;;;12.00;99.90;;;;;;5008919;27;20058;-88
2022/10/01 00:23:37;;;;;;;0.50;0.50;;;11.90;99.90;;;;;;5010687;27;20200;-90
2022/10/01 00:26:24;;;;;;;0.50;0.50;;;11.90;99.90;;;;;;4984084;27;20043;-92
2022/10/01 00:29:03;;;;;;;0.50;0.50;;;11.80;99.90;;;;;;5008467;27;20062;-93
2022/10/01 00:31:29;;;;;;;0.50;0.50;;;11.80;99.90;;;;;;5005476;27;20550;-88
2022/10/01 00:33:57;;;;;;;0.50;0.50;;;11.80;99.90;;;;;;5028233;27;20116;-89
2022/10/01 00:36:24;;;;;;;0.50;0.50;;;11.80;99.90;;;;;;5013808;27;20039;-94
2022/10/01 00:38:49;;;;;;;0.50;0.50;;;11.70;99.90;;;;;;5019970;27;20055;-88
2022/10/01 00:41:17;;;;;;;0.50;0.50;;;11.80;99.90;;;;;;5014229;28;20043;-92
2022/10/01 00:43:49;;;;;;;0.50;0.50;;;11.70;99.90;;;;;;5035104;28;20343;-92
2022/10/01 00:46:33;;;;;;;0.50;0.50;;;11.70;99.90;;;;;;5016767;28;20053;-94
2022/10/01 00:49:01;;;;;;;;;;;11.70;99.90;;;;;;5018189;27;20130;-92
2022/10/01 00:51:33;;;;;;;0.50;0.50;;;11.70;99.90;;;;;;5025889;27;19923;-92
2022/10/01 00:54:10;;;;;;;0.50;0.50;;;11.70;99.90;;;;;;5013224;28;20036;-90
2022/10/01 00:56:43;;;;;;;0.50;0.50;;;11.70;99.90;;;;;;5023349;28;20515;-93
2022/10/01 00:59:34;;;;;;;0.50;0.50;;;11.60;99.90;;;;;;5006536;27;20393;-96
2022/10/01 01:02:00;;;;;;;0.50;0.50;;;11.60;99.90;;;;;;5028861;28;20051;-90
2022/10/01 01:04:26;;;;;;;0.50;0.50;;;11.60;99.90;;;;;;5008710;28;20866;-89
2022/10/01 01:07:01;;;;;;;0.50;0.50;;;11.60;99.90;;;;;;4988456;27;20475;-89
2022/10/01 01:10:02;;;;;;;;;;;;;;;;;;;;;
2022/10/01 01:13:05;;;;;;;;;;;;;;;;;;;;;
2022/10/01 01:15:53;;;;;;;0.50;0.50;;;11.60;99.90;;;;;;5033072;28;20205;-85
2022/10/01 01:18:28;;;;;;;0.60;0.60;;;11.60;99.90;;;;;;5032937;27;20043;-92
2022/10/01 01:21:03;;;;;;;0.60;0.60;;;11.50;99.90;;;;;;5036047;27;21088;-88
2022/10/01 01:23:40;;;;;;;0.50;0.50;;;11.60;99.90;;;;;;5022836;27;20047;-90
2022/10/01 01:26:41;;;;;;;0.57;0.57;;;11.60;99.90;;;;;;5031441;27;20496;-94
2022/10/01 01:29:33;;;;;;;0.50;0.50;;;11.60;99.90;;;;;;5027371;27;20103;-92
2022/10/01 01:32:21;;;;;;;0.50;0.50;;;11.50;99.90;;;;;;5015955;27;20053;-96
2022/10/01 01:34:59;;;;;;;0.50;0.50;;;11.50;99.90;;;;;;5026646;27;21019;-96
2022/10/01 01:37:36;;;;;;;0.60;0.60;;;11.50;99.90;;;;;;5036780;27;20035;-94
2022/10/01 01:40:57;;;;;;;0.50;0.50;;;11.50;99.90;;;;;;5035525;27;20358;-95
2022/10/01 01:44:09;;;;;;;0.50;0.50;;;11.50;99.90;;;;;;4927164;27;20065;-91
2022/10/01 01:46:56;;;;;;;0.60;0.60;;;11.50;99.90;;;;;;5032304;27;20358;-94
2022/10/01 01:49:28;;;;;;;0.60;0.60;;;11.50;99.90;;;;;;5048904;27;20216;-94
2022/10/01 01:52:21;;;;;;;0.50;0.50;;;11.50;99.90;;;;;;5027130;27;20788;-92
2022/10/01 01:55:20;;;;;;;0.50;0.50;;;11.40;99.90;;;;;;5029914;27;20086;-89
2022/10/01 01:57:50;;;;;;;0.55;0.55;;;11.50;99.90;;;;;;5034664;27;20261;-89
2022/10/01 02:00:24;;;;;;;0.60;0.60;;;11.50;99.90;;;;;;5051662;27;20126;-96
2022/10/01 02:03:01;;;;;;;0.60;0.60;;;11.50;99.90;;;;;;5033873;27;20047;-96
2022/10/01 02:05:37;;;;;;;0.60;0.60;;;11.40;99.90;;;;;;5016115;27;20083;-90
2022/10/01 02:08:26;;;;;;;0.60;0.60;;;11.50;99.90;;;;;;5032920;27;20066;-92
2022/10/01 02:11:39;;;;;;;0.60;0.60;;;11.50;99.90;;;;;;5043101;27;20047;-87
2022/10/01 02:14:27;;;;;;;0.60;0.60;;;11.40;99.90;;;;;;5041526;27;20062;-90
2022/10/01 02:17:19;;;;;;;0.60;0.60;;;11.40;99.90;;;;;;5014533;27;20051;-87
2022/10/01 02:20:16;;;;;;;0.50;0.50;;;11.40;99.90;;;;;;4959449;28;20565;-88
2022/10/01 02:23:14;;;;;;;0.50;0.50;;;11.40;99.90;;;;;;5009641;27;20741;-88
2022/10/01 02:25:51;;;;;;;0.50;0.50;;;11.40;99.90;;;;;;5005491;27;20078;-87
2022/10/01 02:28:22;;;;;;;0.50;0.50;;;11.50;99.90;;;;;;5008368;27;20525;-86
2022/10/01 02:30:50;;;;;;;0.60;0.60;;;11.50;99.90;;;;;;5032188;27;20524;-89
2022/10/01 02:33:24;;;;;;;0.50;0.50;;;11.50;99.90;;;;;;5022004;27;20562;-95
2022/10/01 02:35:52;;;;;;;0.60;0.60;;;11.40;99.90;;;;;;5019647;27;20085;-81
2022/10/01 02:38:27;;;;;;;0.50;0.50;;;11.50;99.90;;;;;;5016388;27;20147;-93
2022/10/01 02:41:03;;;;;;;0.50;0.50;;;11.40;99.90;;;;;;5022984;27;20472;-87
2022/10/01 02:43:56;;;;;;;0.60;0.60;;;11.40;99.90;;;;;;5021094;27;20268;-91
2022/10/01 02:46:56;;;;;;;0.60;0.60;;;11.50;99.90;;;;;;5015514;27;20151;-96
2022/10/01 02:49:46;;;;;;;0.50;0.50;;;11.40;99.90;;;;;;5053286;27;20333;-94
2022/10/01 02:52:41;;;;;;;0.50;0.50;;;11.40;99.90;;;;;;5038529;27;20073;-89
2022/10/01 02:55:19;;;;;;;0.60;0.60;;;11.50;99.90;;;;;;5024936;27;20051;-87
2022/10/01 02:57:46;;;;;;;0.50;0.50;;;11.50;99.90;;;;;;4999177;27;20214;-86
2022/10/01 03:00:20;;;;;;;0.50;0.50;;;11.50;99.90;;;;;;5026514;27;20740;-84
2022/10/01 03:02:47;;;;;;;0.60;0.60;;;11.50;99.90;;;;;;5013118;28;20304;-85
2022/10/01 03:05:15;;;;;;;0.60;0.60;;;11.60;99.90;;;;;;5037150;27;20057;-89
2022/10/01 03:07:42;;;;;;;0.60;0.60;;;11.60;99.90;;;;;;4979812;27;20055;-85
2022/10/01 03:10:14;;;;;;;0.60;0.60;;;11.50;99.90;;;;;;5024233;27;20055;-85
2022/10/01 03:12:46;;;;;;;0.60;0.60;;;11.50;99.90;;;;;;5015841;27;20305;-91
2022/10/01 03:15:15;;;;;;;0.60;0.60;;;11.50;99.90;;;;;;5012804;27;20075;-84
2022/10/01 03:17:41;;;;;;;0.50;0.50;;;11.50;99.90;;;;;;5010826;27;20079;-89
2022/10/01 03:20:08;;;;;;;0.50;0.50;;;11.50;99.90;;;;;;5025164;27;20057;-85
2022/10/01 03:22:34;;;;;;;0.50;0.50;;;11.50;99.90;;;;;;5015873;27;20505;-82
2022/10/01 03:24:59;;;;;;;0.50;0.50;;;11.50;99.90;;;;;;4988601;27;20067;-86
2022/10/01 03:27:25;;;;;;;0.60;0.60;;;11.60;99.90;;;;;;4991804;27;20201;-92
2022/10/01 03:29:51;;;;;;;0.60;0.60;;;11.50;99.90;;;;;;5015596;27;20057;-91
2022/10/01 03:32:18;;;;;;;0.60;0.60;;;11.60;99.90;;;;;;5003833;27;20035;-88
2022/10/01 03:34:44;;;;;;;0.60;0.60;;;11.60;99.90;;;;;;4993033;27;20385;-85
2022/10/01 03:37:10;;;;;;;0.50;0.50;;;11.60;99.90;;;;;;5018831;27;20261;-89
2022/10/01 03:39:36;;;;;;;0.50;0.50;;;11.60;99.90;;;;;;5015860;27;20411;-95
2022/10/01 03:42:04;;;;;;;0.50;0.50;;;11.60;99.90;;;;;;5014238;27;20074;-83
2022/10/01 03:44:30;;;;;;;0.60;0.60;;;11.60;99.90;;;;;;5013983;27;20047;-83
2022/10/01 03:46:56;;;;;;;0.60;0.60;;;11.60;99.90;;;;;;5012173;27;20548;-87
2022/10/01 03:49:22;;;;;;;0.50;0.50;;;11.50;99.90;;;;;;4985891;28;20054;-82
2022/10/01 03:51:48;;;;;;;0.50;0.50;;;11.60;99.90;;;;;;5014767;27;20148;-84
2022/10/01 03:54:14;;;;;;;0.60;0.60;;;11.60;99.90;;;;;;5006917;28;20043;-85
2022/10/01 03:56:41;;;;;;;0.50;0.50;;;11.50;99.90;;;;;;4996368;28;20528;-83
2022/10/01 03:59:11;;;;;;;0.50;0.50;;;11.60;99.90;;;;;;5007811;27;20755;-81
2022/10/01 04:01:37;;;;;;;0.50;0.50;;;11.60;99.90;;;;;;5007611;27;20539;-85
2022/10/01 04:04:04;;;;;;;0.50;0.50;;;11.50;99.90;;;;;;5010267;28;20089;-83
2022/10/01 04:06:30;;;;;;;0.60;0.60;;;11.60;99.90;;;;;;5017611;27;21031;-85
2022/10/01 04:08:56;;;;;;;0.60;0.60;;;11.60;99.90;;;;;;5017708;28;20588;-82
2022/10/01 04:11:23;;;;;;;0.50;0.50;;;11.60;99.90;;;;;;5023592;28;21092;-83
2022/10/01 04:13:50;;;;;;;0.50;0.50;;;11.60;99.90;;;;;;4997408;28;20048;-88
2022/10/01 04:16:16;;;;;;;0.50;0.50;;;11.50;99.90;;;;;;5003928;28;20040;-86
2022/10/01 04:18:42;;;;;;;0.50;0.50;;;11.60;99.90;;;;;;4982965;28;20060;-86
2022/10/01 04:21:07;;;;;;;0.50;0.50;;;11.60;99.90;;;;;;5010390;28;20060;-88
2022/10/01 04:23:34;;;;;;;0.50;0.50;;;11.70;99.90;;;;;;5014062;27;20646;-82
2022/10/01 04:26:03;;;;;;;0.60;0.60;;;11.70;99.90;;;;;;5017837;28;20039;-88
2022/10/01 04:28:30;;;;;;;0.60;0.60;;;11.70;99.90;;;;;;5016678;27;20417;-89
2022/10/01 04:33:40;;;;;;;0.52;0.52;;;11.70;99.90;;;;;;5017172;27;23110;-86
2022/10/01 04:36:06;;;;;;;0.60;0.60;;;11.70;99.90;;;;;;5009367;28;20047;-88
2022/10/01 04:38:33;;;;;;;0.60;0.60;;;11.70;99.90;;;;;;4985528;28;20603;-87
2022/10/01 04:40:59;;;;;;;0.60;0.60;;;11.70;99.90;;;;;;4987834;28;20913;-87
2022/10/01 04:43:25;;;;;;;0.60;0.60;;;11.70;99.90;;;;;;4995331;28;20050;-87
2022/10/01 04:45:51;;;;;;;0.60;0.60;;;11.70;99.90;;;;;;5004838;28;20091;-83
2022/10/01 04:48:17;;;;;;;0.60;0.60;;;11.80;99.90;;;;;;4993597;28;20060;-82
2022/10/01 04:50:43;;;;;;;0.60;0.60;;;11.80;99.90;;;;;;5015510;28;20754;-87
2022/10/01 04:53:09;;;;;;;0.60;0.60;;;11.70;99.90;;;;;;5029869;28;20051;-87
2022/10/01 04:55:35;;;;;;;0.50;0.50;;;11.80;99.90;;;;;;5032029;28;20044;-85
2022/10/01 04:58:01;;;;;;;0.60;0.60;;;11.80;99.90;;;;;;5033393;27;20108;-87
2022/10/01 05:00:27;;;;;;;0.60;0.60;;;11.80;99.90;;;;;;5027724;27;20050;-84
2022/10/01 05:02:53;;;;;;;0.60;0.60;;;11.80;99.90;;;;;;4999993;28;20612;-84
2022/10/01 05:05:21;;;;;;;0.60;0.60;;;11.90;99.90;;;;;;4998811;28;20035;-85
2022/10/01 05:07:49;;;;;;;0.60;0.60;;;11.90;99.90;;;;;;5021759;27;20827;-84
2022/10/01 05:10:18;;;;;;;0.60;0.60;;;11.90;99.90;;;;;;5005746;28;20051;-85
2022/10/01 05:12:45;;;;;;;0.60;0.60;;;11.90;99.90;;;;;;5008324;27;20153;-86
2022/10/01 05:15:11;;;;;;;0.60;0.60;;;11.90;99.90;;;;;;4985655;27;20100;-86
2022/10/01 05:17:37;;;;;;;0.60;0.60;;;11.90;99.90;;;;;;5026005;27;20086;-85
2022/10/01 05:20:05;;;;;;;0.60;0.60;;;11.90;99.90;;;;;;5026810;27;20075;-86
2022/10/01 05:22:31;;;;;;;0.60;0.60;;;12.00;99.90;;;;;;5010619;28;20957;-87
2022/10/01 05:24:58;;;;;;;0.57;0.57;;;12.00;99.90;;;;;;5020482;27;20403;-87
2022/10/01 05:27:26;;;;;;;0.60;0.60;;;12.00;99.90;;;;;;5015404;27;20534;-87
2022/10/01 05:29:52;;;;;;;0.60;0.60;;;12.00;99.90;;;;;;4988839;28;20064;-85
2022/10/01 05:32:18;;;;;;;0.60;0.60;;;12.10;99.90;;;;;;5028049;27;20039;-83
2022/10/01 05:34:45;;;;;;;0.60;0.60;;;12.10;99.90;;;;;;5005026;27;20296;-86
2022/10/01 05:37:11;;;;;;;0.60;0.60;;;12.10;99.90;;;;;;5014067;27;20580;-87
2022/10/01 05:39:37;;;;;;;0.60;0.60;;;12.10;99.90;;;;;;5000681;28;20280;-83
2022/10/01 05:42:03;;;;;;;0.60;0.60;;;12.10;99.90;;;;;;4982888;27;20096;-85
2022/10/01 05:44:36;;;;;;;0.50;0.50;;;12.20;99.90;;;;;;4996220;28;20234;-84
2022/10/01 05:47:05;;;;;;;0.60;0.60;;;12.20;99.90;;;;;;5006187;27;20052;-84
2022/10/01 05:49:32;;;;;;;0.60;0.60;;;12.10;99.90;;;;;;5019207;27;20097;-85
2022/10/01 05:51:59;;;;;;;0.50;0.50;;;12.20;99.90;;;;;;5015002;28;20206;-88
2022/10/01 05:54:28;;;;;;;0.60;0.60;;;12.20;99.90;;;;;;5007841;28;20569;-86
2022/10/01 05:56:54;;;;;;;0.50;0.50;;;12.20;99.90;;;;;;5010361;28;20047;-85
2022/10/01 05:59:20;;;;;;;0.50;0.50;;;12.30;99.90;;;;;;5005640;27;20062;-84
2022/10/01 06:01:46;;;;;;;0.60;0.60;;;12.30;99.90;;;;;;5004985;28;20576;-86
2022/10/01 06:04:12;;;;;;;0.50;0.50;;;12.30;99.90;;;;;;5008597;28;20056;-87
2022/10/01 06:06:38;;;;;;;0.50;0.50;;;12.30;99.90;;;;;;5015210;28;20044;-88
2022/10/01 06:09:04;;;;;;;0.50;0.50;;;12.40;99.90;;;;;;4992910;28;20635;-86
2022/10/01 06:11:30;;;;;;;0.60;0.60;;;12.40;99.90;;;;;;4986529;28;20070;-83
2022/10/01 06:13:56;;;;;;;0.60;0.60;;;12.50;99.90;;;;;;4991111;28;20036;-82
2022/10/01 06:16:24;;;;;;;0.60;0.60;;;12.50;99.90;;;;;;5008292;28;20055;-84
2022/10/01 06:18:56;;;;;;;0.60;0.60;;;12.50;99.90;;;;;;4991775;28;20235;-85
2022/10/01 06:21:23;;;;;;;0.50;0.50;;;12.50;99.90;;;;;;5007706;28;20280;-84
2022/10/01 06:23:49;;;;;;;0.60;0.60;;;12.50;99.90;;;;;;5001994;27;20499;-84
2022/10/01 06:26:16;;;;;;;0.60;0.60;;;12.60;99.90;;;;;;5009759;28;20126;-84
2022/10/01 06:28:42;;;;;;;0.60;0.60;;;12.60;99.90;;;;;;4987674;28;20894;-86
2022/10/01 06:31:08;;;;;;;0.60;0.60;;;12.60;99.90;;;;;;5012882;27;20044;-91
2022/10/01 06:33:34;;;;;;;0.50;0.50;;;12.70;99.90;;;;;;4998548;28;20574;-85
2022/10/01 06:36:03;;;;;;;0.60;0.60;;;12.70;99.90;;;;;;5007193;27;20576;-89
2022/10/01 06:38:29;;;;;;;0.50;0.50;;;12.80;99.90;;;;;;5004697;27;20112;-83
2022/10/01 06:40:57;;;;;;;0.57;0.57;;;12.80;99.90;;;;;;4992199;28;20055;-88
2022/10/01 06:43:25;;;;;;;0.50;0.50;;;12.80;99.90;;;;;;4995815;28;20054;-85
2022/10/01 06:45:51;;;;;;;0.60;0.60;;;12.80;99.90;;;;;;5007997;28;20047;-84
2022/10/01 06:48:20;;;;;;;0.60;0.60;;;12.90;99.90;;;;;;4998889;27;20051;-81
2022/10/01 06:50:48;;;;;;;0.60;0.60;;;12.90;99.90;;;;;;5006491;27;20063;-82
2022/10/01 06:53:16;;;;;;;0.60;0.60;;;12.90;99.90;;;;;;5007395;27;20456;-85
2022/10/01 06:55:43;;;;;;;0.60;0.60;;;13.10;99.90;;;;;;4997917;28;20126;-89
2022/10/01 06:58:15;;;;;;;0.60;0.60;;;13.10;99.90;;;;;;4981422;28;20047;-86
2022/10/01 07:00:42;;;;;;;0.50;0.50;;;13.10;99.90;;;;;;5006405;28;20516;-83
2022/10/01 07:03:13;;;;;;;0.60;0.60;;;13.10;99.90;;;;;;5007845;27;20423;-83
2022/10/01 07:05:39;;;;;;;0.50;0.50;;;13.20;99.90;;;;;;4992398;28;20040;-83
2022/10/01 07:08:06;;;;;;;0.50;0.50;;;13.20;99.90;;;;;;5010799;27;20276;-86
2022/10/01 07:10:33;;;;;;;0.50;0.50;;;13.20;99.90;;;;;;4970482;28;21090;-85
2022/10/01 07:13:07;;;;;;;0.50;0.50;;;13.20;99.90;;;;;;5011862;27;20044;-88
2022/10/01 07:15:33;;;;;;;0.52;0.52;;;13.20;99.90;;;;;;4998669;28;20040;-88
2022/10/01 07:17:59;;;;;;;0.60;0.60;;;13.30;99.90;;;;;;4994335;28;20526;-88
2022/10/01 07:20:25;;;;;;;0.60;0.60;;;13.50;99.90;;;;;;5009690;28;20920;-86
2022/10/01 07:22:56;;;;;;;0.50;0.50;;;13.50;99.90;;;;;;5005628;28;20071;-86
2022/10/01 07:25:22;;;;;;;0.60;0.60;;;13.50;99.90;;;;;;5001515;28;20158;-86
2022/10/01 07:27:48;;;;;;;0.57;0.57;;;13.50;99.90;;;;;;5001084;28;20078;-85
2022/10/01 07:30:14;;;;;;;0.60;0.60;;;13.60;99.90;;;;;;5005075;28;20456;-86
2022/10/01 07:32:43;;;;;;;0.60;0.60;;;13.60;99.90;;;;;;4990120;28;20060;-85
2022/10/01 07:35:09;;;;;;;0.60;0.60;;;13.70;99.90;;;;;;4991125;28;20053;-87
2022/10/01 07:37:36;;;;;;;0.60;0.60;;;13.80;99.90;;;;;;5008502;28;20801;-83
2022/10/01 07:40:02;;;;;;;0.60;0.60;;;13.80;99.90;;;;;;5010980;28;20051;-88
2022/10/01 07:42:28;;;;;;;0.50;0.50;;;13.90;99.90;;;;;;4991714;28;20054;-85
2022/10/01 07:44:54;;;;;;;0.50;0.50;;;14.10;99.90;;;;;;5009470;27;20090;-86
2022/10/01 07:47:21;;;;;;;0.50;0.50;;;14.10;99.90;;;;;;4991851;28;20566;-86
2022/10/01 07:49:47;;;;;;;0.60;0.60;;;14.40;99.90;;;;;;5007659;28;20056;-85
2022/10/01 07:52:13;;;;;;;0.60;0.60;;;14.40;99.90;;;;;;4984314;28;20119;-87
2022/10/01 07:54:39;;;;;;;0.50;0.50;;;14.60;99.90;;;;;;4992935;28;20386;-85
2022/10/01 07:57:05;;;;;;;0.50;0.50;;;14.80;99.90;;;;;;5006361;28;20058;-88
2022/10/01 07:59:32;;;;;;;0.50;0.50;;;14.90;99.90;;;;;;4992569;28;20565;-87
2022/10/01 08:01:58;;;;;;;0.50;0.50;;;14.80;99.90;;;;;;5009478;28;20520;-89
2022/10/01 08:07:09;;;;;;;0.50;0.50;;;15.20;99.90;;;;;;5005949;27;20040;-86
2022/10/01 08:09:34;;;;;;;0.50;0.50;;;15.30;99.90;;;;;;5009893;28;20048;-84
2022/10/01 08:12:01;;;;;;;0.50;0.50;;;15.20;99.90;;;;;;5007325;28;20093;-83
2022/10/01 08:14:29;;;;;;;0.50;0.50;;;15.10;99.90;;;;;;5002545;28;20043;-86
2022/10/01 08:16:56;;;;;;;0.50;0.50;;;15.40;99.90;;;;;;5009891;28;20056;-87
2022/10/01 08:19:22;;;;;;;0.50;0.50;;;15.40;99.90;;;;;;5003600;28;20418;-85
2022/10/01 08:21:48;;;;;;;0.50;0.50;;;15.40;99.90;;;;;;5009177;28;20054;-87
2022/10/01 08:24:33;;;;;;;0.50;0.50;;;15.40;99.90;;;;;;4987212;28;20052;-85
2022/10/01 08:26:59;;;;;;;0.50;0.50;;;15.70;99.90;;;;;;4987590;28;20047;-84
2022/10/01 08:29:25;;;;;;;0.50;0.50;;;15.90;99.90;;;;;;4989498;28;20130;-86
2022/10/01 08:31:51;;;;;;;0.50;0.50;;;16.30;99.90;;;;;;4991458;28;20044;-84
2022/10/01 08:34:17;;;;;;;0.50;0.50;;;16.40;99.90;;;;;;5008355;28;20813;-84
2022/10/01 08:36:44;;;;;;;0.50;0.50;;;16.20;99.90;;;;;;5015402;28;20130;-85
2022/10/01 08:39:13;;;;;;;0.50;0.50;;;16.50;99.90;;;;;;5008915;28;20040;-86
2022/10/01 08:41:45;;;;;;;0.40;0.40;;;16.60;99.90;;;;;;4988966;28;20518;-87
2022/10/01 08:44:27;;;;;;;0.50;0.50;;;16.60;99.90;;;;;;5001597;28;20040;-85
2022/10/01 08:46:58;;;;;;;0.50;0.50;;;16.30;99.90;;;;;;4992309;28;20052;-87
2022/10/01 08:49:47;;;;;;;0.40;0.40;;;16.10;99.90;;;;;;5007483;28;20113;-85
2022/10/01 08:52:21;;;;;;;0.50;0.50;;;16.40;99.90;;;;;;5004248;28;20902;-88
2022/10/01 08:54:49;;;;;;;0.50;0.50;;;16.50;99.90;;;;;;5003704;28;20039;-88
2022/10/01 08:57:21;;;;;;;0.50;0.50;;;16.70;99.90;;;;;;5001386;28;20162;-87
2022/10/01 08:59:54;;;;;;;0.50;0.50;;;16.90;99.90;;;;;;4985275;28;20047;-86
2022/10/01 09:02:24;;;;;;;0.50;0.50;;;17.00;99.90;;;;;;4986420;28;20808;-83
2022/10/01 09:04:54;;;;;;;0.40;0.40;;;16.90;99.90;;;;;;4991185;28;20047;-87
2022/10/01 09:07:25;;;;;;;0.50;0.50;;;17.10;99.90;;;;;;4994167;28;20287;-86
2022/10/01 09:10:17;;;;;;;0.50;0.50;;;16.90;99.90;;;;;;5001627;28;20694;-84
2022/10/01 09:12:58;;;;;;;0.47;0.47;;;16.60;99.90;;;;;;4987427;28;20521;-87
2022/10/01 09:15:40;;;;;;;0.50;0.50;;;16.80;99.90;;;;;;4999426;28;20105;-86
2022/10/01 09:18:35;;;;;;;0.50;0.50;;;16.90;99.90;;;;;;5000355;28;20933;-84
2022/10/01 09:21:06;;;;;;;0.50;0.50;;;16.80;99.90;;;;;;5002701;28;20075;-86
2022/10/01 09:23:43;;;;;;;0.43;0.43;;;16.70;99.90;;;;;;4984503;28;20324;-85
2022/10/01 09:26:11;;;;;;;0.50;0.50;;;17.20;99.90;;;;;;5007832;28;20047;-85
2022/10/01 09:28:40;;;;;;;0.50;0.50;;;17.40;99.90;;;;;;4989089;28;20447;-85
2022/10/01 09:31:12;;;;;;;0.50;0.50;;;17.50;99.90;;;;;;5003945;28;20044;-83
2022/10/01 09:33:41;;;;;;;0.50;0.50;;;17.70;99.90;;;;;;4981259;28;20041;-87
2022/10/01 09:36:17;;;;;;;0.40;0.40;;;17.90;99.90;;;;;;5000646;28;21017;-86
2022/10/01 09:38:58;;;;;;;0.40;0.40;;;18.20;99.90;;;;;;4982050;28;20039;-87
2022/10/01 09:41:24;;;;;;;0.50;0.50;;;17.70;99.90;;;;;;4997327;28;20463;-85
2022/10/01 09:43:50;;;;;;;0.50;0.50;;;18.10;99.90;;;;;;4992984;28;20055;-86
2022/10/01 09:46:16;;;;;;;0.50;0.50;;;18.40;99.90;;;;;;5006509;28;20036;-86
2022/10/01 09:48:56;;;;;;;0.50;0.50;;;18.50;99.90;;;;;;5005006;27;20811;-85
2022/10/01 09:51:24;;;;;;;0.50;0.50;;;18.60;99.90;;;;;;5006043;27;20555;-84
2022/10/01 09:54:02;;;;;;;0.50;0.50;;;18.60;99.90;;;;;;4988463;27;20056;-87
2022/10/01 09:56:36;;;;;;;0.40;0.40;;;18.50;99.90;;;;;;4998794;28;20497;-84
2022/10/01 09:59:07;;;;;;;0.40;0.40;;;18.30;99.90;;;;;;5016609;27;20436;-83
2022/10/01 10:01:43;;;;;;;0.50;0.50;;;18.30;99.90;;;;;;5006256;27;20496;-84
2022/10/01 10:04:10;;;;;;;0.40;0.40;;;18.50;99.90;;;;;;5007429;27;20889;-85
2022/10/01 10:06:37;;;;;;;0.50;0.50;;;18.10;99.90;;;;;;5009247;27;20055;-82
2022/10/01 10:09:03;;;;;;;0.40;0.40;;;18.10;99.90;;;;;;5005662;27;20047;-84
2022/10/01 10:11:32;;;;;;;0.50;0.50;;;18.30;99.90;;;;;;4990365;27;20051;-85
2022/10/01 10:14:02;;;;;;;0.50;0.50;;;18.50;99.90;;;;;;5006777;27;20043;-86
2022/10/01 10:16:36;;;;;;;0.50;0.50;;;18.50;99.90;;;;;;5004314;27;20047;-84
2022/10/01 10:19:09;;;;;;;0.40;0.40;;;18.40;99.90;;;;;;4979070;27;20918;-85
2022/10/01 10:21:35;;;;;;;0.50;0.50;;;17.90;99.90;;;;;;5022394;27;20046;-84
2022/10/01 10:24:04;;;;;;;0.50;0.50;;;17.50;99.90;;;;;;5006518;27;20055;-83
2022/10/01 10:26:34;;;;;;;0.40;0.40;;;17.50;99.90;;;;;;5004275;27;20039;-86
2022/10/01 10:29:01;;;;;;;0.50;0.50;;;17.20;99.90;;;;;;5005618;27;20047;-80
2022/10/01 10:31:40;;;;;;;0.40;0.40;;;17.00;99.90;;;;;;5016319;27;20414;-81
2022/10/01 10:34:20;;;;;;;0.50;0.50;;;16.80;99.90;;;;;;5000850;27;20122;-82
2022/10/01 10:36:47;;;;;;;0.50;0.50;;;16.70;99.90;;;;;;5003591;27;20353;-81
2022/10/01 10:39:34;;;;;;;0.50;0.50;;;16.60;99.90;;;;;;5016808;27;20569;-82
2022/10/01 10:42:02;;;;;;;0.50;0.50;;;17.20;99.90;;;;;;4996114;27;20852;-84
2022/10/01 10:44:35;;;;;;;0.50;0.50;;;17.70;99.90;;;;;;5014453;27;20043;-83
2022/10/01 10:47:04;;;;;;;0.50;0.50;;;18.10;99.90;;;;;;4998938;28;20062;-82
2022/10/01 10:49:47;;;;;;;0.50;0.50;;;18.00;99.90;;;;;;5006831;28;20040;-84
2022/10/01 10:52:35;;;;;;;0.40;0.40;;;17.80;99.90;;;;;;5007416;28;20055;-84
2022/10/01 10:55:21;;;;;;;0.50;0.50;;;17.50;99.90;;;;;;4998568;28;20055;-85
2022/10/01 10:57:48;;;;;;;0.50;0.50;;;17.20;99.90;;;;;;4992037;28;20055;-90
2022/10/01 11:00:25;;;;;;;0.50;0.50;;;16.90;99.90;;;;;;4989478;28;20381;-89
2022/10/01 11:03:00;;;;;;;0.50;0.50;;;16.50;99.90;;;;;;5009038;28;20056;-91
2022/10/01 11:05:41;;;;;;;0.50;0.50;;;16.00;99.90;;;;;;5001347;28;20208;-92
2022/10/01 11:08:22;;;;;;;0.50;0.50;;;15.60;99.90;;;;;;5011474;28;20933;-90
2022/10/01 11:11:32;;;;;;;0.50;0.50;;;15.40;99.90;;;;;;5001243;28;20050;-89
2022/10/01 11:17:28;;;;;;;0.50;0.50;;;15.60;99.90;;;;;;4978978;28;20047;-93
2022/10/01 11:20:22;;;;;;;0.50;0.50;;;15.10;99.90;;;;;;4997119;28;20125;-85
2022/10/01 11:23:28;;;;;;;0.50;0.50;;;15.10;99.90;;;;;;4999259;28;20143;-88
2022/10/01 11:26:11;;;;;;;0.50;0.50;;;15.30;99.90;;;;;;4989633;28;20082;-96
2022/10/01 11:28:58;;;;;;;0.50;0.50;;;15.30;99.90;;;;;;5019186;28;20048;-89
2022/10/01 11:32:15;;;;;;;0.50;0.50;;;15.20;99.90;;;;;;5023062;28;20443;-96
2022/10/01 11:34:57;;;;;;;0.50;0.50;;;15.00;99.90;;;;;;5040130;28;20044;-93
2022/10/01 11:38:05;;;;;;;0.50;0.50;;;14.90;99.90;;;;;;5043179;28;20686;-88
2022/10/01 11:41:06;;;;;;;0.50;0.50;;;14.90;99.90;;;;;;5024767;28;20048;-92
2022/10/01 11:43:45;;;;;;;0.50;0.50;;;14.90;99.90;;;;;;4997020;28;20113;-91
2022/10/01 11:46:33;;;;;;;0.50;0.50;;;14.90;99.90;;;;;;5024115;28;20105;-95
2022/10/01 11:49:18;;;;;;;0.50;0.50;;;15.00;99.90;;;;;;5008437;28;20358;-94
2022/10/01 11:52:12;;;;;;;0.50;0.50;;;15.20;99.90;;;;;;5031672;28;20121;-95
2022/10/01 12:01:40;;;;;;;0.50;0.50;;;15.00;99.90;;;;;;5017804;28;20289;-89
2022/10/01 12:04:37;;;;;;;0.50;0.50;;;14.80;99.90;;;;;;5014216;28;20091;-92
2022/10/01 12:14:59;;;;;;;0.50;0.50;;;15.20;99.90;;;;;;5050595;28;20172;-93
2022/10/01 12:21:05;;;;;;;0.50;0.50;;;16.30;99.90;;;;;;5037499;28;20044;-93
2022/10/01 12:23:55;;;;;;;0.50;0.50;;;16.60;99.90;;;;;;5032413;28;20044;-95
2022/10/01 12:27:12;;;;;;;0.50;0.50;;;16.90;99.90;;;;;;5012168;28;20404;-94
2022/10/01 12:30:03;;;;;;;0.50;0.50;;;17.00;99.90;;;;;;4963136;28;20087;-93
2022/10/01 12:33:13;;;;;;;0.50;0.50;;;17.40;99.90;;;;;;5011591;28;20055;-92
2022/10/01 12:36:14;;;;;;;0.50;0.50;;;17.70;99.90;;;;;;5022487;28;20056;-93
2022/10/01 12:39:19;;;;;;;0.50;0.50;;;17.70;99.90;;;;;;4996183;28;20044;-92
2022/10/01 12:42:14;;;;;;;0.50;0.50;;;17.70;99.90;;;;;;5005702;28;21061;-86
2022/10/01 12:45:11;;;;;;;0.50;0.50;;;18.00;99.90;;;;;;4938185;28;20661;-90
2022/10/01 12:47:40;;;;;;;0.50;0.50;;;18.00;99.90;;;;;;4911654;28;20045;-89
2022/10/01 12:51:27;;;;;;;0.50;0.50;;;17.70;99.90;;;;;;5013057;28;20071;-91
2022/10/01 12:54:05;;;;;;;0.50;0.50;;;17.50;99.90;;;;;;5016517;28;20422;-93
2022/10/01 12:57:12;;;;;;;0.50;0.50;;;17.10;99.90;;;;;;5002970;28;20041;-90
2022/10/01 13:00:03;;;;;;;0.50;0.50;;;16.80;99.90;;;;;;4975854;28;20071;-94
2022/10/01 13:02:50;;;;;;;0.50;0.50;;;16.20;99.90;;;;;;4934753;28;21007;-89
2022/10/01 13:05:21;;;;;;;0.50;0.50;;;16.00;99.90;;;;;;5009138;28;20053;-88
2022/10/01 13:07:55;;;;;;;0.50;0.50;;;15.90;99.90;;;;;;4997908;28;20866;-92
2022/10/01 13:11:07;;;;;;;0.40;0.40;;;15.90;99.90;;;;;;5022724;28;20048;-91
2022/10/01 13:13:34;;;;;;;0.50;0.50;;;16.10;99.90;;;;;;5000130;28;20051;-85
2022/10/01 13:16:06;;;;;;;0.50;0.50;;;16.10;99.90;;;;;;5004723;28;20043;-85
2022/10/01 13:18:55;;;;;;;0.50;0.50;;;16.40;99.90;;;;;;5012507;28;20264;-94
2022/10/01 13:21:42;;;;;;;0.50;0.50;;;16.80;99.90;;;;;;5012414;28;20040;-90
2022/10/01 13:24:26;;;;;;;0.50;0.50;;;17.10;99.90;;;;;;5010669;28;20898;-93
2022/10/01 13:27:16;;;;;;;0.50;0.50;;;17.00;99.90;;;;;;5028316;28;20052;-93
2022/10/01 13:30:06;;;;;;;0.50;0.50;;;17.00;99.90;;;;;;5014427;28;20048;-94
2022/10/01 13:32:36;;;;;;;0.50;0.50;;;16.80;99.90;;;;;;4999775;28;20071;-89
2022/10/01 13:35:23;;;;;;;0.45;0.45;;;16.90;99.90;;;;;;5008453;28;20048;-93
2022/10/01 13:37:49;;;;;;;0.50;0.50;;;16.60;99.90;;;;;;5010504;28;20402;-84
2022/10/01 13:40:42;;;;;;;0.50;0.50;;;16.50;99.90;;;;;;5009252;28;20658;-85
2022/10/01 13:43:17;;;;;;;0.70;0.70;;;16.40;99.90;;;;;;5003150;28;20059;-87
2022/10/01 13:45:52;;;;;;;0.50;0.50;;;16.40;99.90;;;;;;4996850;28;20372;-91
2022/10/01 13:48:22;;;;;;;0.45;0.45;;;16.40;99.90;;;;;;5006524;28;20397;-87
2022/10/01 13:51:03;;;;;;;0.50;0.50;;;17.00;99.90;;;;;;5003003;28;20586;-89
2022/10/01 13:53:32;;;;;;;0.50;0.50;;;17.60;99.90;;;;;;5019976;28;22507;-86
2022/10/01 13:55:58;;;;;;;0.50;0.50;;;18.20;99.90;;;;;;5019477;28;20531;-85